sensor_id;sensor_type;location;lat;lon;timestamp;temperature;humidity
7000;DHT22;3540;53.242;10.408;2023-11-19T00:00:36;5.10;99.90
7000;DHT22;3540;53.242;10.408;2023-11-19T00:03:02;5.10;99.90
7000;DHT22;3540;53.242;10.408;2023-11-19T00:05:28;5.10;99.90
7000;DHT22;3540;53.242;10.408;2023-11-19T00:07:54;5.10;99.90
7000;DHT22;3540;53.242;10.408;2023-11-19T00:10:20;5.10;99.90
7000;DHT22;3540;53.242;10.408;2023-11-19T00:12:48;5.10;99.90
7000;DHT22;3540;53.242;10.408;2023-11-19T00:15:14;5.10;99.90
7000;DHT22;3540;53.242;10.408;2023-11-19T00:17:44;5.10;99.90
7000;DHT22;3540;53.242;10.408;2023-11-19T00:20:15;5.10;99.90
7000;DHT22;3540;53.242;10.408;2023-11-19T00:22:41;5.10;99.90
7000;DHT22;3540;53.242;10.408;2023-11-19T00:25:08;5.10;99.90
7000;DHT22;3540;53.242;10.408;2023-11-19T00:27:35;5.10;99.90
7000;DHT22;3540;53.242;10.408;2023-11-19T00:30:00;5.10;99.90
7000;DHT22;3540;53.242;10.408;2023-11-19T00:32:26;5.10;99.90
7000;DHT22;3540;53.242;10.408;2023-11-19T00:34:52;5.10;99.90
7000;DHT22;3540;53.242;10.408;2023-11-19T00:37:17;5.10;99.90
7000;DHT22;3540;53.242;10.408;2023-11-19T00:39:43;5.10;99.90
7000;DHT22;3540;53.242;10.408;2023-11-19T00:42:09;5.10;99.90
7000;DHT22;3540;53.242;10.408;2023-11-19T00:44:39;5.20;99.90
7000;DHT22;3540;53.242;10.408;2023-11-19T00:47:04;5.20;99.90
7000;DHT22;3540;53.242;10.408;2023-11-19T00:49:31;5.20;99.90
7000;DHT22;3540;53.242;10.408;2023-11-19T00:51:58;5.20;99.90
7000;DHT22;3540;53.242;10.408;2023-11-19T00:54:24;5.20;99.90
7000;DHT22;3540;53.242;10.408;2023-11-19T00:56:52;5.20;99.90
7000;DHT22;3540;53.242;10.408;2023-11-19T00:59:18;5.20;99.90
7000;DHT22;3540;53.242;10.408;2023-11-19T01:01:44;5.20;99.90
7000;DHT22;3540;53.242;10.408;2023-11-19T01:04:09;5.20;99.90
7000;DHT22;3540;53.242;10.408;2023-11-19T01:06:35;5.20;99.90
7000;DHT22;3540;53.242;10.408;2023-11-19T01:09:00;5.20;99.90
7000;DHT22;3540;53.242;10.408;2023-11-19T01:11:26;5.20;99.90
7000;DHT22;3540;53.242;10.408;2023-11-19T01:13:52;5.20;99.90
7000;DHT22;3540;53.242;10.408;2023-11-19T01:16:18;5.20;99.90
7000;DHT22;3540;53.242;10.408;2023-11-19T01:18:46;5.20;99.90
7000;DHT22;3540;53.242;10.408;2023-11-19T01:21:12;5.20;99.90
7000;DHT22;3540;53.242;10.408;2023-11-19T01:23:38;5.20;99.90
7000;DHT22;3540;53.242;10.408;2023-11-19T01:26:04;5.20;99.90
7000;DHT22;3540;53.242;10.408;2023-11-19T01:28:31;5.20;99.90
7000;DHT22;3540;53.242;10.408;2023-11-19T01:30:56;5.20;99.90
7000;DHT22;3540;53.242;10.408;2023-11-19T01:33:22;5.20;99.90
7000;DHT22;3540;53.242;10.408;2023-11-19T01:35:48;5.20;99.90
7000;DHT22;3540;53.242;10.408;2023-11-19T01:38:13;5.20;99.90
7000;DHT22;3540;53.242;10.408;2023-11-19T01:40:40;5.20;99.90
7000;DHT22;3540;53.242;10.408;2023-11-19T01:43:05;5.20;99.90
7000;DHT22;3540;53.242;10.408;2023-11-19T01:45:31;5.20;99.90
7000;DHT22;3540;53.242;10.408;2023-11-19T01:48:02;5.20;99.90
7000;DHT22;3540;53.242;10.408;2023-11-19T01:50:30;5.30;99.90
7000;DHT22;3540;53.242;10.408;2023-11-19T01:52:57;5.20;99.90
7000;DHT22;3540;53.242;10.408;2023-11-19T01:55:24;5.20;99.90
7000;DHT22;3540;53.242;10.408;2023-11-19T01:57:52;5.20;99.90
7000;DHT22;3540;53.242;10.408;2023-11-19T02:00:18;5.20;99.90
7000;DHT22;3540;53.242;10.408;2023-11-19T02:02:46;5.20;99.90
7000;DHT22;3540;53.242;10.408;2023-11-19T02:05:13;5.30;99.90
7000;DHT22;3540;53.242;10.408;2023-11-19T02:07:39;5.30;99.90
7000;DHT22;3540;53.242;10.408;2023-11-19T02:10:06;5.20;99.90
7000;DHT22;3540;53.242;10.408;2023-11-19T02:12:38;5.30;99.90
7000;DHT22;3540;53.242;10.408;2023-11-19T02:15:08;5.30;99.90
7000;DHT22;3540;53.242;10.408;2023-11-19T02:17:34;5.30;99.90
7000;DHT22;3540;53.242;10.408;2023-11-19T02:20:00;5.30;99.90
7000;DHT22;3540;53.242;10.408;2023-11-19T02:22:26;5.30;99.90
7000;DHT22;3540;53.242;10.408;2023-11-19T02:25:04;5.30;99.90
7000;DHT22;3540;53.242;10.408;2023-11-19T02:27:53;5.30;99.90
7000;DHT22;3540;53.242;10.408;2023-11-19T02:30:22;5.30;99.90
7000;DHT22;3540;53.242;10.408;2023-11-19T02:32:55;5.30;99.90
7000;DHT22;3540;53.242;10.408;2023-11-19T02:35:23;5.30;99.90
7000;DHT22;3540;53.242;10.408;2023-11-19T02:37:49;5.40;99.90
7000;DHT22;3540;53.242;10.408;2023-11-19T02:40:15;5.30;99.90
7000;DHT22;3540;53.242;10.408;2023-11-19T02:42:40;5.40;99.90
7000;DHT22;3540;53.242;10.408;2023-11-19T02:45:07;5.40;99.90
7000;DHT22;3540;53.242;10.408;2023-11-19T02:47:33;5.40;99.90
7000;DHT22;3540;53.242;10.408;2023-11-19T02:49:59;5.40;99.90
7000;DHT22;3540;53.242;10.408;2023-11-19T02:52:25;5.40;99.90
7000;DHT22;3540;53.242;10.408;2023-11-19T02:54:51;5.40;99.90
7000;DHT22;3540;53.242;10.408;2023-11-19T02:57:17;5.40;99.90
7000;DHT22;3540;53.242;10.408;2023-11-19T02:59:44;5.50;99.90
7000;DHT22;3540;53.242;10.408;2023-11-19T03:02:10;5.50;99.90
7000;DHT22;3540;53.242;10.408;2023-11-19T03:04:37;5.50;99.90
7000;DHT22;3540;53.242;10.408;2023-11-19T03:07:06;5.50;99.90
7000;DHT22;3540;53.242;10.408;2023-11-19T03:09:33;5.60;99.90
7000;DHT22;3540;53.242;10.408;2023-11-19T03:12:00;5.60;99.90
7000;DHT22;3540;53.242;10.408;2023-11-19T03:14:26;5.60;99.90
7000;DHT22;3540;53.242;10.408;2023-11-19T03:16:51;5.70;99.90
7000;DHT22;3540;53.242;10.408;2023-11-19T03:19:17;5.70;99.90
7000;DHT22;3540;53.242;10.408;2023-11-19T03:21:43;5.70;99.90
7000;DHT22;3540;53.242;10.408;2023-11-19T03:24:10;5.70;99.90
7000;DHT22;3540;53.242;10.408;2023-11-19T03:26:36;5.70;99.90
7000;DHT22;3540;53.242;10.408;2023-11-19T03:29:02;5.80;99.90
7000;DHT22;3540;53.242;10.408;2023-11-19T03:31:28;5.80;99.90
7000;DHT22;3540;53.242;10.408;2023-11-19T03:33:54;5.80;99.90
7000;DHT22;3540;53.242;10.408;2023-11-19T03:36:19;5.70;99.90
7000;DHT22;3540;53.242;10.408;2023-11-19T03:38:45;5.80;99.90
7000;DHT22;3540;53.242;10.408;2023-11-19T03:41:12;5.80;99.90
7000;DHT22;3540;53.242;10.408;2023-11-19T03:43:39;5.80;99.90
7000;DHT22;3540;53.242;10.408;2023-11-19T03:46:05;5.80;99.90
7000;DHT22;3540;53.242;10.408;2023-11-19T03:48:40;5.90;99.90
7000;DHT22;3540;53.242;10.408;2023-11-19T03:51:06;5.90;99.90
7000;DHT22;3540;53.242;10.408;2023-11-19T03:53:31;5.90;99.90
7000;DHT22;3540;53.242;10.408;2023-11-19T03:55:57;5.90;99.90
7000;DHT22;3540;53.242;10.408;2023-11-19T03:58:22;5.90;99.90
7000;DHT22;3540;53.242;10.408;2023-11-19T04:00:48;6.00;99.90
7000;DHT22;3540;53.242;10.408;2023-11-19T04:03:13;6.00;99.90
7000;DHT22;3540;53.242;10.408;2023-11-19T04:05:39;6.00;99.90
7000;DHT22;3540;53.242;10.408;2023-11-19T04:08:05;6.10;99.90
7000;DHT22;3540;53.242;10.408;2023-11-19T04:10:30;6.10;99.90
7000;DHT22;3540;53.242;10.408;2023-11-19T04:12:56;6.20;99.90
7000;DHT22;3540;53.242;10.408;2023-11-19T04:15:22;6.20;99.90
7000;DHT22;3540;53.242;10.408;2023-11-19T04:17:47;6.20;99.90
7000;DHT22;3540;53.242;10.408;2023-11-19T04:20:13;6.30;99.90
7000;DHT22;3540;53.242;10.408;2023-11-19T04:22:39;6.30;99.90
7000;DHT22;3540;53.242;10.408;2023-11-19T04:25:05;6.30;99.90
7000;DHT22;3540;53.242;10.408;2023-11-19T04:27:31;6.30;99.90
7000;DHT22;3540;53.242;10.408;2023-11-19T04:29:57;6.40;99.90
7000;DHT22;3540;53.242;10.408;2023-11-19T04:32:22;6.40;99.90
7000;DHT22;3540;53.242;10.408;2023-11-19T04:34:48;6.40;99.90
7000;DHT22;3540;53.242;10.408;2023-11-19T04:37:13;6.50;99.90
7000;DHT22;3540;53.242;10.408;2023-11-19T04:39:39;6.50;99.90
7000;DHT22;3540;53.242;10.408;2023-11-19T04:42:05;6.50;99.90
7000;DHT22;3540;53.242;10.408;2023-11-19T04:44:31;6.60;99.90
7000;DHT22;3540;53.242;10.408;2023-11-19T04:46:57;6.60;99.90
7000;DHT22;3540;53.242;10.408;2023-11-19T04:49:23;6.70;99.90
7000;DHT22;3540;53.242;10.408;2023-11-19T04:51:49;6.80;99.90
7000;DHT22;3540;53.242;10.408;2023-11-19T04:54:16;6.90;99.90
7000;DHT22;3540;53.242;10.408;2023-11-19T04:56:45;6.90;99.90
7000;DHT22;3540;53.242;10.408;2023-11-19T04:59:11;7.00;99.90
7000;DHT22;3540;53.242;10.408;2023-11-19T05:01:36;7.00;99.90
7000;DHT22;3540;53.242;10.408;2023-11-19T05:04:02;7.10;99.90
7000;DHT22;3540;53.242;10.408;2023-11-19T05:06:28;7.20;99.90
7000;DHT22;3540;53.242;10.408;2023-11-19T05:09:00;7.20;99.90
7000;DHT22;3540;53.242;10.408;2023-11-19T05:11:30;7.30;99.90
7000;DHT22;3540;53.242;10.408;2023-11-19T05:13:56;7.30;99.90
7000;DHT22;3540;53.242;10.408;2023-11-19T05:16:21;7.40;99.90
7000;DHT22;3540;53.242;10.408;2023-11-19T05:18:47;7.40;99.90
7000;DHT22;3540;53.242;10.408;2023-11-19T05:21:13;7.50;99.90
7000;DHT22;3540;53.242;10.408;2023-11-19T05:23:39;7.60;99.90
7000;DHT22;3540;53.242;10.408;2023-11-19T05:26:04;7.70;99.90
7000;DHT22;3540;53.242;10.408;2023-11-19T05:28:30;7.80;99.90
7000;DHT22;3540;53.242;10.408;2023-11-19T05:30:56;7.80;99.90
7000;DHT22;3540;53.242;10.408;2023-11-19T05:33:22;7.90;99.90
7000;DHT22;3540;53.242;10.408;2023-11-19T05:35:47;7.90;99.90
7000;DHT22;3540;53.242;10.408;2023-11-19T05:38:13;8.00;99.90
7000;DHT22;3540;53.242;10.408;2023-11-19T05:40:40;8.00;99.90
7000;DHT22;3540;53.242;10.408;2023-11-19T05:43:06;8.10;99.90
7000;DHT22;3540;53.242;10.408;2023-11-19T05:45:32;8.20;99.90
7000;DHT22;3540;53.242;10.408;2023-11-19T05:47:58;8.30;99.90
7000;DHT22;3540;53.242;10.408;2023-11-19T05:50:24;8.30;99.90
7000;DHT22;3540;53.242;10.408;2023-11-19T05:52:50;8.40;99.90
7000;DHT22;3540;53.242;10.408;2023-11-19T05:55:15;8.40;99.90
7000;DHT22;3540;53.242;10.408;2023-11-19T05:57:41;8.40;99.90
7000;DHT22;3540;53.242;10.408;2023-11-19T06:00:07;8.40;99.90
7000;DHT22;3540;53.242;10.408;2023-11-19T06:02:34;8.50;99.90
7000;DHT22;3540;53.242;10.408;2023-11-19T06:05:00;8.50;99.90
7000;DHT22;3540;53.242;10.408;2023-11-19T06:07:26;8.50;99.90
7000;DHT22;3540;53.242;10.408;2023-11-19T06:09:52;8.50;99.90
7000;DHT22;3540;53.242;10.408;2023-11-19T06:12:17;8.60;99.90
7000;DHT22;3540;53.242;10.408;2023-11-19T06:14:43;8.50;99.90
7000;DHT22;3540;53.242;10.408;2023-11-19T06:17:09;8.60;99.90
7000;DHT22;3540;53.242;10.408;2023-11-19T06:19:36;8.60;99.90
7000;DHT22;3540;53.242;10.408;2023-11-19T06:22:03;8.70;99.90
7000;DHT22;3540;53.242;10.408;2023-11-19T06:24:29;8.80;99.90
7000;DHT22;3540;53.242;10.408;2023-11-19T06:26:54;8.80;99.90
7000;DHT22;3540;53.242;10.408;2023-11-19T06:29:20;8.80;99.90
7000;DHT22;3540;53.242;10.408;2023-11-19T06:31:45;8.90;99.90
7000;DHT22;3540;53.242;10.408;2023-11-19T06:34:14;8.90;99.90
7000;DHT22;3540;53.242;10.408;2023-11-19T06:36:40;9.00;99.90
7000;DHT22;3540;53.242;10.408;2023-11-19T06:39:05;9.10;99.90
7000;DHT22;3540;53.242;10.408;2023-11-19T06:41:31;9.20;99.90
7000;DHT22;3540;53.242;10.408;2023-11-19T06:43:57;9.30;99.90
7000;DHT22;3540;53.242;10.408;2023-11-19T06:46:22;9.40;99.90
7000;DHT22;3540;53.242;10.408;2023-11-19T06:48:48;9.50;99.90
7000;DHT22;3540;53.242;10.408;2023-11-19T06:51:14;9.60;99.90
7000;DHT22;3540;53.242;10.408;2023-11-19T06:53:39;9.80;99.90
7000;DHT22;3540;53.242;10.408;2023-11-19T06:56:16;9.80;99.90
7000;DHT22;3540;53.242;10.408;2023-11-19T06:58:42;10.00;99.90
7000;DHT22;3540;53.242;10.408;2023-11-19T07:01:08;10.10;99.90
7000;DHT22;3540;53.242;10.408;2023-11-19T07:03:35;10.30;99.90
7000;DHT22;3540;53.242;10.408;2023-11-19T07:06:00;10.40;99.90
7000;DHT22;3540;53.242;10.408;2023-11-19T07:08:26;10.60;99.90
7000;DHT22;3540;53.242;10.408;2023-11-19T07:10:52;10.60;99.90
7000;DHT22;3540;53.242;10.408;2023-11-19T07:13:18;10.70;99.90
7000;DHT22;3540;53.242;10.408;2023-11-19T07:15:44;10.70;99.90
7000;DHT22;3540;53.242;10.408;2023-11-19T07:18:10;10.80;99.90
7000;DHT22;3540;53.242;10.408;2023-11-19T07:20:37;10.90;99.90
7000;DHT22;3540;53.242;10.408;2023-11-19T07:23:03;10.90;99.90
7000;DHT22;3540;53.242;10.408;2023-11-19T07:25:29;10.90;99.90
7000;DHT22;3540;53.242;10.408;2023-11-19T07:27:54;11.00;99.90
7000;DHT22;3540;53.242;10.408;2023-11-19T07:30:22;11.00;99.90
7000;DHT22;3540;53.242;10.408;2023-11-19T07:32:47;11.00;99.90
7000;DHT22;3540;53.242;10.408;2023-11-19T07:35:14;11.10;99.90
7000;DHT22;3540;53.242;10.408;2023-11-19T07:37:41;11.10;99.90
7000;DHT22;3540;53.242;10.408;2023-11-19T07:40:08;11.10;99.90
7000;DHT22;3540;53.242;10.408;2023-11-19T07:42:33;11.20;99.90
7000;DHT22;3540;53.242;10.408;2023-11-19T07:44:59;11.20;99.90
7000;DHT22;3540;53.242;10.408;2023-11-19T07:47:25;11.30;99.90
7000;DHT22;3540;53.242;10.408;2023-11-19T07:49:50;11.30;99.90
7000;DHT22;3540;53.242;10.408;2023-11-19T07:52:16;11.40;99.90
7000;DHT22;3540;53.242;10.408;2023-11-19T07:54:42;11.40;99.90
7000;DHT22;3540;53.242;10.408;2023-11-19T07:57:07;11.50;99.90
7000;DHT22;3540;53.242;10.408;2023-11-19T07:59:33;11.50;99.90
7000;DHT22;3540;53.242;10.408;2023-11-19T08:01:59;11.50;99.90
7000;DHT22;3540;53.242;10.408;2023-11-19T08:04:24;11.60;99.90
7000;DHT22;3540;53.242;10.408;2023-11-19T08:06:50;11.60;99.90
7000;DHT22;3540;53.242;10.408;2023-11-19T08:09:17;11.70;99.90
7000;DHT22;3540;53.242;10.408;2023-11-19T08:11:43;11.70;99.90
7000;DHT22;3540;53.242;10.408;2023-11-19T08:14:09;11.80;99.90
7000;DHT22;3540;53.242;10.408;2023-11-19T08:16:35;11.80;99.90
7000;DHT22;3540;53.242;10.408;2023-11-19T08:19:03;11.90;99.90
7000;DHT22;3540;53.242;10.408;2023-11-19T08:21:28;12.00;99.90
7000;DHT22;3540;53.242;10.408;2023-11-19T08:23:54;12.10;99.90
7000;DHT22;3540;53.242;10.408;2023-11-19T08:26:20;12.10;99.90
7000;DHT22;3540;53.242;10.408;2023-11-19T08:28:45;12.10;99.90
7000;DHT22;3540;53.242;10.408;2023-11-19T08:31:11;12.00;99.90
7000;DHT22;3540;53.242;10.408;2023-11-19T08:33:37;12.00;99.90
7000;DHT22;3540;53.242;10.408;2023-11-19T08:36:03;12.10;99.90
7000;DHT22;3540;53.242;10.408;2023-11-19T08:38:29;12.00;99.90
7000;DHT22;3540;53.242;10.408;2023-11-19T08:40:55;12.00;99.90
7000;DHT22;3540;53.242;10.408;2023-11-19T08:43:27;12.10;99.90
7000;DHT22;3540;53.242;10.408;2023-11-19T08:45:53;12.00;99.90
7000;DHT22;3540;53.242;10.408;2023-11-19T08:48:19;12.10;99.90
7000;DHT22;3540;53.242;10.408;2023-11-19T08:50:44;12.00;99.90
7000;DHT22;3540;53.242;10.408;2023-11-19T08:53:10;12.00;99.90
7000;DHT22;3540;53.242;10.408;2023-11-19T08:55:36;12.00;99.90
7000;DHT22;3540;53.242;10.408;2023-11-19T08:58:02;12.00;99.90
7000;DHT22;3540;53.242;10.408;2023-11-19T09:00:27;11.90;99.90
7000;DHT22;3540;53.242;10.408;2023-11-19T09:02:53;11.90;99.90
7000;DHT22;3540;53.242;10.408;2023-11-19T09:05:19;11.90;99.90
7000;DHT22;3540;53.242;10.408;2023-11-19T09:07:44;12.00;99.90
7000;DHT22;3540;53.242;10.408;2023-11-19T09:10:10;11.90;99.90
7000;DHT22;3540;53.242;10.408;2023-11-19T09:15:22;11.90;99.90
7000;DHT22;3540;53.242;10.408;2023-11-19T09:17:48;11.90;99.90
7000;DHT22;3540;53.242;10.408;2023-11-19T09:20:14;11.90;99.90
7000;DHT22;3540;53.242;10.408;2023-11-19T09:22:41;11.90;99.90
7000;DHT22;3540;53.242;10.408;2023-11-19T09:25:07;11.90;99.90
7000;DHT22;3540;53.242;10.408;2023-11-19T09:27:33;11.90;99.90
7000;DHT22;3540;53.242;10.408;2023-11-19T09:29:59;12.00;99.90
7000;DHT22;3540;53.242;10.408;2023-11-19T09:32:25;12.00;99.90
7000;DHT22;3540;53.242;10.408;2023-11-19T09:34:51;12.00;99.90
7000;DHT22;3540;53.242;10.408;2023-11-19T09:37:16;12.10;99.90
7000;DHT22;3540;53.242;10.408;2023-11-19T09:39:42;12.10;99.90
7000;DHT22;3540;53.242;10.408;2023-11-19T09:42:11;12.10;99.90
7000;DHT22;3540;53.242;10.408;2023-11-19T09:44:38;12.10;99.90
7000;DHT22;3540;53.242;10.408;2023-11-19T09:47:05;12.10;99.90
7000;DHT22;3540;53.242;10.408;2023-11-19T09:49:33;12.10;99.90
7000;DHT22;3540;53.242;10.408;2023-11-19T09:52:00;12.10;99.90
7000;DHT22;3540;53.242;10.408;2023-11-19T09:54:26;12.20;99.90
7000;DHT22;3540;53.242;10.408;2023-11-19T09:56:52;12.20;99.90
7000;DHT22;3540;53.242;10.408;2023-11-19T09:59:18;12.20;99.90
7000;DHT22;3540;53.242;10.408;2023-11-19T10:01:45;12.20;99.90
7000;DHT22;3540;53.242;10.408;2023-11-19T10:04:14;12.20;99.90
7000;DHT22;3540;53.242;10.408;2023-11-19T10:06:41;12.20;99.90
7000;DHT22;3540;53.242;10.408;2023-11-19T10:09:07;12.20;99.90
7000;DHT22;3540;53.242;10.408;2023-11-19T10:11:33;12.20;99.90
7000;DHT22;3540;53.242;10.408;2023-11-19T10:13:59;12.20;99.90
7000;DHT22;3540;53.242;10.408;2023-11-19T10:16:29;12.30;99.90
7000;DHT22;3540;53.242;10.408;2023-11-19T10:18:58;12.30;99.90
7000;DHT22;3540;53.242;10.408;2023-11-19T10:21:24;12.30;99.90
7000;DHT22;3540;53.242;10.408;2023-11-19T10:23:51;12.30;99.90
7000;DHT22;3540;53.242;10.408;2023-11-19T10:26:18;12.40;99.90
7000;DHT22;3540;53.242;10.408;2023-11-19T10:28:49;12.40;99.90
7000;DHT22;3540;53.242;10.408;2023-11-19T10:31:19;12.50;99.90
7000;DHT22;3540;53.242;10.408;2023-11-19T10:33:46;12.50;99.90
7000;DHT22;3540;53.242;10.408;2023-11-19T10:36:12;12.50;99.90
7000;DHT22;3540;53.242;10.408;2023-11-19T10:38:39;12.40;99.90
7000;DHT22;3540;53.242;10.408;2023-11-19T10:41:06;12.40;99.90
7000;DHT22;3540;53.242;10.408;2023-11-19T10:43:32;12.40;99.90
7000;DHT22;3540;53.242;10.408;2023-11-19T10:46:13;12.40;99.90
7000;DHT22;3540;53.242;10.408;2023-11-19T10:48:39;12.40;99.90
7000;DHT22;3540;53.242;10.408;2023-11-19T10:51:07;12.50;99.90
7000;DHT22;3540;53.242;10.408;2023-11-19T10:53:37;12.40;99.90
7000;DHT22;3540;53.242;10.408;2023-11-19T10:56:10;12.40;99.90
7000;DHT22;3540;53.242;10.408;2023-11-19T10:58:36;12.40;99.90
7000;DHT22;3540;53.242;10.408;2023-11-19T11:01:11;12.40;99.90
7000;DHT22;3540;53.242;10.408;2023-11-19T11:03:40;12.40;99.90
7000;DHT22;3540;53.242;10.408;2023-11-19T11:06:06;12.40;99.90
7000;DHT22;3540;53.242;10.408;2023-11-19T11:08:32;12.30;99.90
7000;DHT22;3540;53.242;10.408;2023-11-19T11:11:02;12.10;99.90
7000;DHT22;3540;53.242;10.408;2023-11-19T11:13:30;12.00;99.90
7000;DHT22;3540;53.242;10.408;2023-11-19T11:15:57;11.90;99.90
7000;DHT22;3540;53.242;10.408;2023-11-19T11:18:26;11.80;99.90
7000;DHT22;3540;53.242;10.408;2023-11-19T11:20:57;11.80;99.90
7000;DHT22;3540;53.242;10.408;2023-11-19T11:29:02;12.20;99.90
7000;DHT22;3540;53.242;10.408;2023-11-19T11:37:26;12.40;99.90
7000;DHT22;3540;53.242;10.408;2023-11-19T11:39:57;12.50;99.90
7000;DHT22;3540;53.242;10.408;2023-11-19T11:45:13;12.60;99.90
7000;DHT22;3540;53.242;10.408;2023-11-19T11:50:20;12.70;99.90
7000;DHT22;3540;53.242;10.408;2023-11-19T11:55:37;12.80;99.90
7000;DHT22;3540;53.242;10.408;2023-11-19T11:58:03;12.80;99.90
7000;DHT22;3540;53.242;10.408;2023-11-19T12:00:31;12.80;99.90
7000;DHT22;3540;53.242;10.408;2023-11-19T12:03:00;12.60;99.90
7000;DHT22;3540;53.242;10.408;2023-11-19T12:08:14;12.40;99.90
7000;DHT22;3540;53.242;10.408;2023-11-19T12:10:49;12.30;99.90
7000;DHT22;3540;53.242;10.408;2023-11-19T12:13:19;12.30;99.90
7000;DHT22;3540;53.242;10.408;2023-11-19T12:18:23;12.50;99.90
7000;DHT22;3540;53.242;10.408;2023-11-19T12:20:50;12.50;99.90
7000;DHT22;3540;53.242;10.408;2023-11-19T12:23:16;12.50;99.90
7000;DHT22;3540;53.242;10.408;2023-11-19T12:25:41;12.60;99.90
7000;DHT22;3540;53.242;10.408;2023-11-19T12:28:12;12.60;99.90
7000;DHT22;3540;53.242;10.408;2023-11-19T12:30:38;12.60;99.90
7000;DHT22;3540;53.242;10.408;2023-11-19T12:33:11;12.70;99.90
7000;DHT22;3540;53.242;10.408;2023-11-19T12:35:47;12.70;99.90
7000;DHT22;3540;53.242;10.408;2023-11-19T12:38:25;12.60;99.90
7000;DHT22;3540;53.242;10.408;2023-11-19T12:41:09;12.60;99.90
7000;DHT22;3540;53.242;10.408;2023-11-19T12:43:37;12.50;99.90
7000;DHT22;3540;53.242;10.408;2023-11-19T12:46:19;12.50;99.90
7000;DHT22;3540;53.242;10.408;2023-11-19T12:48:46;12.50;99.90
7000;DHT22;3540;53.242;10.408;2023-11-19T12:51:12;12.50;99.90
7000;DHT22;3540;53.242;10.408;2023-11-19T12:53:51;12.50;99.90
7000;DHT22;3540;53.242;10.408;2023-11-19T12:56:21;12.50;99.90
7000;DHT22;3540;53.242;10.408;2023-11-19T12:58:48;12.40;99.90
7000;DHT22;3540;53.242;10.408;2023-11-19T13:01:18;12.30;99.90
7000;DHT22;3540;53.242;10.408;2023-11-19T13:03:45;12.30;99.90
7000;DHT22;3540;53.242;10.408;2023-11-19T13:06:13;12.40;99.90
7000;DHT22;3540;53.242;10.408;2023-11-19T13:08:43;12.40;99.90
7000;DHT22;3540;53.242;10.408;2023-11-19T13:11:11;12.40;99.90
7000;DHT22;3540;53.242;10.408;2023-11-19T13:16:19;12.40;99.90
7000;DHT22;3540;53.242;10.408;2023-11-19T13:18:45;12.40;99.90
7000;DHT22;3540;53.242;10.408;2023-11-19T13:21:10;12.30;99.90
7000;DHT22;3540;53.242;10.408;2023-11-19T13:23:36;12.30;99.90
7000;DHT22;3540;53.242;10.408;2023-11-19T13:26:01;12.30;99.90
7000;DHT22;3540;53.242;10.408;2023-11-19T13:28:29;12.30;99.90
7000;DHT22;3540;53.242;10.408;2023-11-19T13:30:54;12.20;99.90
7000;DHT22;3540;53.242;10.408;2023-11-19T13:33:20;12.20;99.90
7000;DHT22;3540;53.242;10.408;2023-11-19T13:35:46;12.20;99.90
7000;DHT22;3540;53.242;10.408;2023-11-19T13:38:11;12.10;99.90
7000;DHT22;3540;53.242;10.408;2023-11-19T13:40:37;12.10;99.90
7000;DHT22;3540;53.242;10.408;2023-11-19T13:43:02;12.00;99.90
7000;DHT22;3540;53.242;10.408;2023-11-19T13:45:28;11.90;99.90
7000;DHT22;3540;53.242;10.408;2023-11-19T13:47:53;11.90;99.90
7000;DHT22;3540;53.242;10.408;2023-11-19T13:50:19;11.90;99.90
7000;DHT22;3540;53.242;10.408;2023-11-19T13:52:45;12.00;99.90
7000;DHT22;3540;53.242;10.408;2023-11-19T13:55:13;12.00;99.90
7000;DHT22;3540;53.242;10.408;2023-11-19T13:57:40;11.90;99.90
7000;DHT22;3540;53.242;10.408;2023-11-19T14:00:08;11.90;99.90
7000;DHT22;3540;53.242;10.408;2023-11-19T14:02:41;11.90;99.90
7000;DHT22;3540;53.242;10.408;2023-11-19T14:05:08;11.80;99.90
7000;DHT22;3540;53.242;10.408;2023-11-19T14:07:34;11.90;99.90
7000;DHT22;3540;53.242;10.408;2023-11-19T14:10:00;11.90;99.90
7000;DHT22;3540;53.242;10.408;2023-11-19T14:12:25;11.90;99.90
7000;DHT22;3540;53.242;10.408;2023-11-19T14:14:51;11.80;99.90
7000;DHT22;3540;53.242;10.408;2023-11-19T14:17:17;11.80;99.90
7000;DHT22;3540;53.242;10.408;2023-11-19T14:19:43;11.80;99.90
7000;DHT22;3540;53.242;10.408;2023-11-19T14:22:09;11.80;99.90
7000;DHT22;3540;53.242;10.408;2023-11-19T14:24:35;11.70;99.90
7000;DHT22;3540;53.242;10.408;2023-11-19T14:27:01;11.70;99.90
7000;DHT22;3540;53.242;10.408;2023-11-19T14:29:27;11.70;99.90
7000;DHT22;3540;53.242;10.408;2023-11-19T14:31:56;11.60;99.90
7000;DHT22;3540;53.242;10.408;2023-11-19T14:34:22;11.50;99.90
7000;DHT22;3540;53.242;10.408;2023-11-19T14:36:48;11.50;99.90
7000;DHT22;3540;53.242;10.408;2023-11-19T14:39:15;11.50;99.90
7000;DHT22;3540;53.242;10.408;2023-11-19T14:41:42;11.50;99.90
7000;DHT22;3540;53.242;10.408;2023-11-19T14:44:07;11.50;99.90
7000;DHT22;3540;53.242;10.408;2023-11-19T14:46:35;11.50;99.90
7000;DHT22;3540;53.242;10.408;2023-11-19T14:49:00;11.50;99.90
7000;DHT22;3540;53.242;10.408;2023-11-19T14:51:26;11.50;99.90
7000;DHT22;3540;53.242;10.408;2023-11-19T14:53:52;11.50;99.90
7000;DHT22;3540;53.242;10.408;2023-11-19T14:56:17;11.50;99.90
7000;DHT22;3540;53.242;10.408;2023-11-19T14:58:43;11.50;99.90
7000;DHT22;3540;53.242;10.408;2023-11-19T15:01:13;11.50;99.90
7000;DHT22;3540;53.242;10.408;2023-11-19T15:03:39;11.40;99.90
7000;DHT22;3540;53.242;10.408;2023-11-19T15:06:06;11.30;99.90
7000;DHT22;3540;53.242;10.408;2023-11-19T15:08:32;11.20;99.90
7000;DHT22;3540;53.242;10.408;2023-11-19T15:10:58;11.20;99.90
7000;DHT22;3540;53.242;10.408;2023-11-19T15:13:25;11.10;99.90
7000;DHT22;3540;53.242;10.408;2023-11-19T15:15:50;11.10;99.90
7000;DHT22;3540;53.242;10.408;2023-11-19T15:18:21;11.10;99.90
7000;DHT22;3540;53.242;10.408;2023-11-19T15:20:47;11.00;99.90
7000;DHT22;3540;53.242;10.408;2023-11-19T15:23:13;10.90;99.90
7000;DHT22;3540;53.242;10.408;2023-11-19T15:25:39;10.90;99.90
7000;DHT22;3540;53.242;10.408;2023-11-19T15:28:04;10.90;99.90
7000;DHT22;3540;53.242;10.408;2023-11-19T15:30:30;10.80;99.90
7000;DHT22;3540;53.242;10.408;2023-11-19T15:32:56;10.80;99.90
7000;DHT22;3540;53.242;10.408;2023-11-19T15:35:21;10.80;99.90
7000;DHT22;3540;53.242;10.408;2023-11-19T15:37:47;10.70;99.90
7000;DHT22;3540;53.242;10.408;2023-11-19T15:40:13;10.70;99.90
7000;DHT22;3540;53.242;10.408;2023-11-19T15:42:40;10.70;99.90
7000;DHT22;3540;53.242;10.408;2023-11-19T15:45:06;10.70;99.90
7000;DHT22;3540;53.242;10.408;2023-11-19T15:47:35;10.70;99.90
7000;DHT22;3540;53.242;10.408;2023-11-19T15:50:02;10.60;99.90
7000;DHT22;3540;53.242;10.408;2023-11-19T15:52:29;10.50;99.90
7000;DHT22;3540;53.242;10.408;2023-11-19T15:54:56;10.40;99.90
7000;DHT22;3540;53.242;10.408;2023-11-19T15:57:21;10.30;99.90
7000;DHT22;3540;53.242;10.408;2023-11-19T15:59:47;10.30;99.90
7000;DHT22;3540;53.242;10.408;2023-11-19T16:02:13;10.30;99.90
7000;DHT22;3540;53.242;10.408;2023-11-19T16:04:39;10.30;99.90
7000;DHT22;3540;53.242;10.408;2023-11-19T16:07:05;10.30;99.90
7000;DHT22;3540;53.242;10.408;2023-11-19T16:09:31;10.30;99.90
7000;DHT22;3540;53.242;10.408;2023-11-19T16:11:57;10.30;99.90
7000;DHT22;3540;53.242;10.408;2023-11-19T16:14:26;10.30;99.90
7000;DHT22;3540;53.242;10.408;2023-11-19T16:16:52;10.30;99.90
7000;DHT22;3540;53.242;10.408;2023-11-19T16:19:20;10.30;99.90